createdAt,value
2023-05-05T00:01:25.419Z,13.30
2023-05-05T00:03:52.534Z,13.30
2023-05-05T00:06:19.328Z,13.30
2023-05-05T00:08:46.379Z,13.30
2023-05-05T00:11:13.153Z,13.20
2023-05-05T00:13:39.914Z,13.20
2023-05-05T00:16:06.954Z,13.10
2023-05-05T00:18:33.901Z,13.10
2023-05-05T00:21:01.068Z,12.90
2023-05-05T00:23:27.806Z,13.00
2023-05-05T00:25:54.795Z,12.90
2023-05-05T00:28:21.880Z,12.90
2023-05-05T00:30:48.641Z,12.90
2023-05-05T00:33:15.368Z,12.90
2023-05-05T00:35:42.221Z,12.80
2023-05-05T00:38:09.427Z,12.80
2023-05-05T00:40:37.914Z,12.80
2023-05-05T00:43:05.190Z,12.80
2023-05-05T00:45:32.117Z,12.70
2023-05-05T00:48:00.705Z,12.70
2023-05-05T00:50:29.889Z,12.60
2023-05-05T00:53:00.362Z,12.70
2023-05-05T00:55:28.221Z,12.60
2023-05-05T00:57:55.810Z,12.70
2023-05-05T01:00:22.911Z,12.60
2023-05-05T01:02:49.699Z,12.70
2023-05-05T01:05:17.073Z,12.60
2023-05-05T01:07:43.786Z,12.50
2023-05-05T01:10:20.662Z,12.50
2023-05-05T01:13:16.506Z,12.50
2023-05-05T01:16:09.653Z,12.50
2023-05-05T01:18:46.205Z,12.40
2023-05-05T01:21:32.635Z,12.40
2023-05-05T01:24:20.490Z,12.40
2023-05-05T01:27:05.687Z,12.30
2023-05-05T01:30:01.639Z,12.20
2023-05-05T01:32:49.238Z,12.10
2023-05-05T01:35:28.646Z,12.10
2023-05-05T01:38:08.114Z,12.10
2023-05-05T01:40:42.404Z,12.10
2023-05-05T01:43:12.358Z,12.10
2023-05-05T01:45:41.841Z,12.00
2023-05-05T01:48:11.621Z,12.00
2023-05-05T01:50:41.815Z,11.90
2023-05-05T01:53:09.941Z,11.90
2023-05-05T01:55:39.246Z,11.90
2023-05-05T01:58:07.341Z,11.90
2023-05-05T02:00:34.824Z,11.90
2023-05-05T02:03:04.348Z,11.90
2023-05-05T02:05:33.295Z,11.80
2023-05-05T02:08:01.263Z,11.80
2023-05-05T02:10:28.845Z,11.80
2023-05-05T02:12:56.681Z,11.80
2023-05-05T02:15:24.374Z,11.70
2023-05-05T02:17:54.344Z,11.70
2023-05-05T02:20:22.314Z,11.70
2023-05-05T02:22:49.135Z,11.70
2023-05-05T02:25:17.784Z,11.60
2023-05-05T02:27:46.333Z,11.50
2023-05-05T02:30:18.219Z,11.50
2023-05-05T02:32:49.593Z,11.40
2023-05-05T02:35:21.409Z,11.50
2023-05-05T02:37:53.362Z,11.40
2023-05-05T02:40:24.377Z,11.40
2023-05-05T02:42:54.276Z,11.40
2023-05-05T02:45:23.454Z,11.30
2023-05-05T02:47:50.198Z,11.30
2023-05-05T02:50:17.036Z,11.20
2023-05-05T02:52:44.374Z,11.20
2023-05-05T02:55:11.455Z,11.10
2023-05-05T02:57:45.000Z,11.10
2023-05-05T03:00:25.293Z,11.10
2023-05-05T03:03:23.288Z,11.10
2023-05-05T03:06:01.597Z,11.10
2023-05-05T03:09:00.529Z,11.10
2023-05-05T03:11:39.244Z,11.00
2023-05-05T03:14:09.988Z,11.10
2023-05-05T03:16:39.559Z,11.00
2023-05-05T03:19:08.562Z,11.00
2023-05-05T03:21:36.147Z,11.00
2023-05-05T03:24:19.712Z,11.00
2023-05-05T03:26:48.140Z,11.00
2023-05-05T03:29:15.677Z,11.00
2023-05-05T03:31:42.567Z,11.00
2023-05-05T03:34:09.540Z,11.00
2023-05-05T03:36:36.814Z,11.00
2023-05-05T03:39:03.756Z,11.00
2023-05-05T03:41:30.741Z,10.90
2023-05-05T03:43:57.476Z,11.00
2023-05-05T03:46:24.263Z,11.00
2023-05-05T03:48:51.555Z,10.90
2023-05-05T03:51:18.593Z,10.90
2023-05-05T03:53:45.483Z,11.00
2023-05-05T03:56:12.366Z,10.90
2023-05-05T03:58:39.106Z,10.90
2023-05-05T04:01:05.846Z,10.90
2023-05-05T04:03:32.712Z,10.90
2023-05-05T04:05:59.840Z,10.90
2023-05-05T04:08:26.884Z,10.90
2023-05-05T04:10:53.639Z,10.90
2023-05-05T04:13:20.561Z,10.80
2023-05-05T04:15:47.327Z,10.90
2023-05-05T04:18:14.056Z,10.80
2023-05-05T04:20:40.812Z,10.90
2023-05-05T04:23:07.588Z,10.90
2023-05-05T04:25:34.363Z,10.90
2023-05-05T04:28:01.097Z,10.90
2023-05-05T04:30:27.863Z,11.00
2023-05-05T04:32:54.707Z,11.00
2023-05-05T04:35:22.182Z,11.00
2023-05-05T04:37:48.856Z,11.00
2023-05-05T04:40:15.680Z,11.10
2023-05-05T04:42:42.323Z,11.10
2023-05-05T04:45:09.675Z,11.10
2023-05-05T04:47:40.402Z,11.20
2023-05-05T04:50:08.795Z,11.20
2023-05-05T04:52:35.791Z,11.20
2023-05-05T04:55:02.855Z,11.20
2023-05-05T04:57:30.428Z,11.30
2023-05-05T04:59:57.261Z,11.40
2023-05-05T05:02:24.345Z,11.30
2023-05-05T05:04:51.067Z,11.30
2023-05-05T05:07:18.051Z,11.50
2023-05-05T05:09:44.797Z,11.40
2023-05-05T05:12:11.543Z,11.50
2023-05-05T05:14:39.232Z,11.50
2023-05-05T05:17:06.662Z,11.50
2023-05-05T05:19:33.540Z,11.60
2023-05-05T05:22:00.638Z,11.60
2023-05-05T05:24:27.331Z,11.60
2023-05-05T05:26:54.065Z,11.60
2023-05-05T05:29:21.062Z,11.70
2023-05-05T05:31:47.913Z,11.70
2023-05-05T05:34:14.845Z,11.80
2023-05-05T05:36:41.647Z,11.80
2023-05-05T05:39:08.417Z,11.80
2023-05-05T05:41:35.247Z,11.90
2023-05-05T05:44:03.026Z,12.00
2023-05-05T05:46:29.741Z,12.10
2023-05-05T05:48:56.531Z,12.20
2023-05-05T05:51:23.264Z,12.40
2023-05-05T05:53:51.729Z,12.50
2023-05-05T05:56:18.467Z,12.70
2023-05-05T05:58:45.446Z,12.70
2023-05-05T06:01:12.268Z,12.80
2023-05-05T06:03:39.041Z,12.80
2023-05-05T06:06:06.060Z,12.90
2023-05-05T06:08:33.321Z,12.90
2023-05-05T06:11:00.663Z,13.00
2023-05-05T06:13:27.593Z,13.00
2023-05-05T06:15:54.687Z,13.20
2023-05-05T06:18:21.457Z,13.20
2023-05-05T06:20:52.374Z,13.30
2023-05-05T06:23:19.394Z,13.40
2023-05-05T06:25:46.204Z,13.30
2023-05-05T06:28:13.024Z,13.50
2023-05-05T06:30:39.889Z,13.70
2023-05-05T06:33:06.708Z,13.80
2023-05-05T06:35:33.625Z,13.90
2023-05-05T06:38:00.648Z,13.90
2023-05-05T06:40:27.405Z,13.90
2023-05-05T06:42:54.190Z,14.00
2023-05-05T06:45:21.478Z,14.00
2023-05-05T06:47:49.215Z,14.10
2023-05-05T06:50:16.209Z,14.20
2023-05-05T06:52:42.976Z,14.30
2023-05-05T06:55:10.113Z,14.30
2023-05-05T06:57:36.987Z,14.40
2023-05-05T07:00:08.127Z,14.50
2023-05-05T07:02:35.244Z,14.60
2023-05-05T07:05:01.987Z,14.60
2023-05-05T07:07:28.850Z,14.60
2023-05-05T07:09:55.837Z,14.70
2023-05-05T07:12:22.735Z,14.60
2023-05-05T07:14:49.522Z,14.70
2023-05-05T07:17:16.573Z,14.70
2023-05-05T07:19:44.315Z,14.90
2023-05-05T07:22:11.006Z,14.90
2023-05-05T07:24:37.775Z,15.00
2023-05-05T07:27:04.636Z,15.10
2023-05-05T07:29:31.665Z,15.10
2023-05-05T07:31:58.635Z,15.00
2023-05-05T07:34:25.650Z,15.10
2023-05-05T07:36:52.571Z,15.10
2023-05-05T07:39:21.231Z,15.10
2023-05-05T07:41:48.274Z,15.10
2023-05-05T07:44:15.128Z,15.10
2023-05-05T07:46:41.863Z,15.10
2023-05-05T07:49:08.572Z,15.10
2023-05-05T07:51:35.279Z,15.00
2023-05-05T07:54:08.146Z,15.00
2023-05-05T07:56:34.968Z,15.00
2023-05-05T07:59:02.072Z,15.10
2023-05-05T08:01:28.999Z,14.90
2023-05-05T08:03:56.282Z,14.90
2023-05-05T08:06:24.905Z,14.90
2023-05-05T08:08:53.509Z,14.90
2023-05-05T08:11:21.910Z,14.90
2023-05-05T08:13:49.025Z,14.90
2023-05-05T08:16:16.195Z,14.90
2023-05-05T08:18:43.444Z,14.90
2023-05-05T08:21:11.762Z,14.90
2023-05-05T08:23:39.433Z,14.90
2023-05-05T08:26:07.254Z,15.00
2023-05-05T08:28:37.453Z,14.90
2023-05-05T08:31:05.830Z,15.00
2023-05-05T08:33:32.920Z,15.10
2023-05-05T08:36:00.177Z,15.00
2023-05-05T08:38:27.196Z,15.10
2023-05-05T08:40:55.013Z,15.10
2023-05-05T08:43:23.861Z,15.10
2023-05-05T08:45:51.816Z,15.10
2023-05-05T08:48:22.775Z,15.20
2023-05-05T08:51:01.907Z,15.20
2023-05-05T08:53:54.701Z,15.30
2023-05-05T08:56:27.740Z,15.30
2023-05-05T08:58:56.395Z,15.40
2023-05-05T09:01:24.007Z,15.50
2023-05-05T09:03:52.718Z,15.50
2023-05-05T09:06:25.646Z,15.50
2023-05-05T09:08:53.695Z,15.60
2023-05-05T09:11:21.542Z,15.60
2023-05-05T09:13:48.576Z,15.70
2023-05-05T09:16:15.660Z,15.80
2023-05-05T09:18:42.771Z,15.80
2023-05-05T09:21:26.011Z,15.90
2023-05-05T09:24:13.151Z,16.10
2023-05-05T09:26:47.160Z,16.10
2023-05-05T09:29:22.533Z,16.20
2023-05-05T09:32:05.641Z,16.30
2023-05-05T09:34:35.178Z,16.30
2023-05-05T09:37:02.172Z,16.40
2023-05-05T09:39:29.291Z,16.40
2023-05-05T09:41:56.109Z,16.60
2023-05-05T09:44:37.080Z,16.80
2023-05-05T09:47:09.530Z,16.90
2023-05-05T09:49:41.765Z,17.20
2023-05-05T09:52:14.883Z,17.40
2023-05-05T09:54:42.598Z,17.50
2023-05-05T09:57:24.822Z,17.80
2023-05-05T10:00:18.102Z,18.10
2023-05-05T10:02:45.475Z,18.10
2023-05-05T10:05:16.875Z,18.10
2023-05-05T10:07:45.821Z,18.00
2023-05-05T10:10:14.892Z,17.80
2023-05-05T10:12:42.242Z,17.90
2023-05-05T10:15:11.204Z,17.90
2023-05-05T10:18:02.152Z,17.90
2023-05-05T10:20:33.392Z,17.70
2023-05-05T10:23:02.756Z,17.80
2023-05-05T10:25:33.750Z,18.00
2023-05-05T10:28:04.579Z,17.90
2023-05-05T10:30:32.739Z,17.90
2023-05-05T10:33:31.965Z,17.90
2023-05-05T10:36:02.407Z,17.80
2023-05-05T10:38:31.132Z,17.80
2023-05-05T10:41:02.198Z,17.80
2023-05-05T10:43:31.352Z,17.80
2023-05-05T10:45:59.153Z,17.80
2023-05-05T10:48:41.591Z,17.70
2023-05-05T10:51:39.859Z,17.80
2023-05-05T10:54:19.040Z,17.70
2023-05-05T10:56:47.178Z,17.70
2023-05-05T10:59:36.060Z,17.80
2023-05-05T11:02:36.215Z,17.80
2023-05-05T11:05:10.066Z,17.80
2023-05-05T11:07:37.884Z,17.80
2023-05-05T11:10:10.045Z,17.80
2023-05-05T11:12:52.445Z,17.90
2023-05-05T11:15:28.419Z,18.00
2023-05-05T11:17:56.836Z,18.20
2023-05-05T11:20:39.796Z,18.60
2023-05-05T11:23:06.925Z,18.50
2023-05-05T11:25:36.868Z,18.60
2023-05-05T11:28:08.415Z,18.70
2023-05-05T11:30:36.693Z,18.70
2023-05-05T11:33:29.503Z,18.80
2023-05-05T11:35:57.614Z,18.80
2023-05-05T11:38:41.160Z,18.80
2023-05-05T11:41:17.501Z,19.00
2023-05-05T11:43:44.351Z,19.20
2023-05-05T11:46:12.205Z,19.50
2023-05-05T11:48:49.703Z,19.70
2023-05-05T11:51:17.586Z,19.80
2023-05-05T11:53:45.986Z,19.90
2023-05-05T11:56:24.219Z,19.90
2023-05-05T11:59:11.303Z,19.90
2023-05-05T12:01:41.721Z,19.80
2023-05-05T12:04:12.794Z,19.70
2023-05-05T12:06:40.205Z,19.60
2023-05-05T12:09:08.334Z,19.50
2023-05-05T12:11:35.085Z,19.50
2023-05-05T12:14:23.593Z,19.40
2023-05-05T12:17:01.387Z,19.50
2023-05-05T12:19:30.382Z,19.50
2023-05-05T12:21:57.356Z,19.40
2023-05-05T12:24:24.249Z,19.50
2023-05-05T12:26:51.744Z,19.40
2023-05-05T12:29:26.131Z,19.40
2023-05-05T12:31:53.078Z,19.40
2023-05-05T12:34:21.394Z,19.40
2023-05-05T12:36:48.719Z,19.40
2023-05-05T12:39:15.476Z,19.40
2023-05-05T12:41:42.304Z,19.40
2023-05-05T12:44:09.117Z,19.30
2023-05-05T12:46:46.309Z,19.40
2023-05-05T12:49:13.291Z,19.50
2023-05-05T12:51:56.245Z,19.50
2023-05-05T12:54:24.480Z,19.60
2023-05-05T12:56:51.388Z,19.70
2023-05-05T12:59:21.207Z,19.80
2023-05-05T13:01:57.285Z,19.90
2023-05-05T13:04:28.447Z,19.80
2023-05-05T13:07:12.935Z,19.80
2023-05-05T13:09:39.843Z,19.90
2023-05-05T13:12:12.359Z,19.90
2023-05-05T13:14:39.968Z,20.00
2023-05-05T13:17:06.906Z,20.00
2023-05-05T13:19:35.697Z,20.00
2023-05-05T13:22:02.385Z,20.00
2023-05-05T13:24:42.236Z,20.00
2023-05-05T13:27:16.632Z,20.00
2023-05-05T13:29:43.800Z,20.00
2023-05-05T13:32:10.858Z,20.10
2023-05-05T13:34:39.231Z,20.20
2023-05-05T13:37:06.292Z,20.20
2023-05-05T13:39:33.192Z,20.40
2023-05-05T13:42:00.174Z,20.50
2023-05-05T13:44:26.920Z,20.50
2023-05-05T13:46:53.890Z,20.50
2023-05-05T13:49:21.023Z,20.50
2023-05-05T13:51:47.864Z,20.50
2023-05-05T13:54:14.584Z,20.40
2023-05-05T13:56:41.398Z,20.40
2023-05-05T13:59:08.065Z,20.40
2023-05-05T14:01:35.006Z,20.30
2023-05-05T14:04:04.479Z,20.30
2023-05-05T14:06:32.706Z,20.20
2023-05-05T14:09:05.652Z,20.20
2023-05-05T14:11:32.522Z,20.20
2023-05-05T14:13:59.262Z,20.30
2023-05-05T14:16:26.003Z,20.20
2023-05-05T14:18:52.710Z,20.20
2023-05-05T14:21:19.453Z,20.20
2023-05-05T14:23:46.209Z,20.20
2023-05-05T14:26:12.904Z,20.30
2023-05-05T14:28:39.533Z,20.10
2023-05-05T14:31:06.534Z,20.10
2023-05-05T14:33:33.290Z,20.10
2023-05-05T14:36:00.199Z,20.20
2023-05-05T14:38:27.017Z,20.10
2023-05-05T14:40:54.037Z,20.10
2023-05-05T14:43:20.834Z,20.00
2023-05-05T14:45:47.698Z,20.00
2023-05-05T14:48:14.490Z,20.00
2023-05-05T14:50:42.632Z,19.90
2023-05-05T14:53:09.484Z,19.90
2023-05-05T14:55:36.228Z,19.90
2023-05-05T14:58:02.871Z,19.90
2023-05-05T15:00:29.641Z,19.90
2023-05-05T15:02:59.326Z,20.00
2023-05-05T15:05:26.067Z,19.90
2023-05-05T15:07:52.737Z,19.80
2023-05-05T15:10:21.722Z,19.70
2023-05-05T15:12:49.043Z,19.80
2023-05-05T15:15:15.787Z,19.80
2023-05-05T15:17:43.146Z,19.70
2023-05-05T15:20:10.444Z,19.70
2023-05-05T15:22:37.357Z,19.70
2023-05-05T15:25:04.390Z,19.70
2023-05-05T15:27:31.852Z,19.60
2023-05-05T15:29:58.589Z,19.60
2023-05-05T15:32:25.402Z,19.50
2023-05-05T15:34:52.181Z,19.50
2023-05-05T15:37:18.823Z,19.50
2023-05-05T15:39:45.538Z,19.50
2023-05-05T15:42:12.223Z,19.40
2023-05-05T15:44:38.960Z,19.30
2023-05-05T15:47:06.850Z,19.30
2023-05-05T15:49:33.623Z,19.30
2023-05-05T15:52:00.657Z,19.30
2023-05-05T15:54:27.432Z,19.20
2023-05-05T15:56:54.210Z,19.10
2023-05-05T15:59:21.204Z,19.10
2023-05-05T16:01:48.729Z,19.00
2023-05-05T16:04:15.614Z,18.90
2023-05-05T16:06:42.365Z,18.80
2023-05-05T16:09:09.500Z,18.70
2023-05-05T16:11:39.734Z,18.60
2023-05-05T16:14:06.486Z,18.60
2023-05-05T16:16:33.269Z,18.60
2023-05-05T16:18:59.969Z,18.60
2023-05-05T16:21:27.600Z,18.50
2023-05-05T16:23:56.117Z,18.50
2023-05-05T16:26:23.024Z,18.40
2023-05-05T16:28:50.285Z,18.40
2023-05-05T16:31:16.996Z,18.30
2023-05-05T16:33:44.158Z,18.20
2023-05-05T16:36:13.298Z,18.10
2023-05-05T16:38:41.572Z,18.00
2023-05-05T16:41:08.983Z,17.90
2023-05-05T16:43:38.660Z,17.80
2023-05-05T16:46:06.469Z,17.70
2023-05-05T16:48:33.184Z,17.60
2023-05-05T16:51:02.924Z,17.50
2023-05-05T16:53:29.651Z,17.60
2023-05-05T16:55:56.404Z,17.60
2023-05-05T16:58:23.825Z,17.60
2023-05-05T17:00:51.886Z,17.70
2023-05-05T17:03:20.228Z,17.70
2023-05-05T17:05:50.024Z,17.80
2023-05-05T17:08:17.391Z,17.80
2023-05-05T17:10:45.522Z,17.80
2023-05-05T17:13:13.248Z,17.80
2023-05-05T17:15:40.537Z,17.80
2023-05-05T17:18:08.098Z,17.70
2023-05-05T17:20:35.230Z,17.70
2023-05-05T17:23:02.186Z,17.70
2023-05-05T17:25:29.274Z,17.70
2023-05-05T17:27:56.238Z,17.60
2023-05-05T17:30:23.146Z,17.50
2023-05-05T17:32:49.879Z,17.60
2023-05-05T17:35:16.691Z,17.60
2023-05-05T17:37:43.393Z,17.60
2023-05-05T17:40:10.486Z,17.60
2023-05-05T17:42:38.218Z,17.50
2023-05-05T17:45:05.807Z,17.50
2023-05-05T17:47:32.637Z,17.50
2023-05-05T17:49:59.588Z,17.50
2023-05-05T17:52:26.563Z,17.40
2023-05-05T17:54:53.329Z,17.40
2023-05-05T17:57:23.159Z,17.40
2023-05-05T17:59:50.375Z,17.40
2023-05-05T18:02:17.299Z,17.30
2023-05-05T18:04:44.477Z,17.40
2023-05-05T18:07:12.251Z,17.40
2023-05-05T18:09:39.339Z,17.40
2023-05-05T18:12:07.702Z,17.40
2023-05-05T18:14:34.516Z,17.40
2023-05-05T18:17:02.423Z,17.30
2023-05-05T18:19:29.200Z,17.30
2023-05-05T18:21:55.997Z,17.30
2023-05-05T18:24:23.316Z,17.10
2023-05-05T18:26:52.069Z,17.10
2023-05-05T18:29:21.509Z,17.10
2023-05-05T18:31:51.473Z,17.00
2023-05-05T18:34:19.202Z,17.10
2023-05-05T18:36:46.421Z,16.90
2023-05-05T18:39:13.849Z,16.90
2023-05-05T18:41:41.043Z,16.80
2023-05-05T18:44:08.269Z,16.70
2023-05-05T18:46:35.165Z,16.60
2023-05-05T18:49:02.419Z,16.60
2023-05-05T18:51:29.307Z,16.50
2023-05-05T18:53:56.266Z,16.40
2023-05-05T18:56:23.046Z,16.50
2023-05-05T18:58:49.679Z,16.40
2023-05-05T19:01:16.647Z,16.40
2023-05-05T19:03:49.998Z,16.40
2023-05-05T19:06:17.310Z,16.30
2023-05-05T19:08:45.167Z,16.30
2023-05-05T19:11:11.861Z,16.20
2023-05-05T19:16:11.688Z,16.30
2023-05-05T19:18:38.998Z,16.20
2023-05-05T19:21:06.157Z,16.10
2023-05-05T19:23:33.419Z,16.10
2023-05-05T19:26:00.367Z,15.90
2023-05-05T19:28:27.316Z,16.00
2023-05-05T19:30:54.185Z,16.00
2023-05-05T19:33:21.257Z,16.00
2023-05-05T19:35:48.059Z,16.00
2023-05-05T19:38:15.024Z,15.90
2023-05-05T19:40:42.015Z,15.80
2023-05-05T19:43:09.073Z,15.90
2023-05-05T19:45:35.863Z,15.80
2023-05-05T19:48:02.919Z,15.80
2023-05-05T19:50:30.673Z,15.80
2023-05-05T19:52:57.663Z,15.80
2023-05-05T19:55:24.523Z,15.80
2023-05-05T19:57:51.223Z,15.80
2023-05-05T20:00:19.494Z,15.80
2023-05-05T20:02:46.548Z,15.80
2023-05-05T20:05:17.357Z,15.80
2023-05-05T20:07:46.287Z,15.70
2023-05-05T20:10:13.449Z,15.90
2023-05-05T20:12:47.484Z,15.70
2023-05-05T20:15:19.641Z,15.70
2023-05-05T20:17:47.522Z,15.70
2023-05-05T20:20:20.422Z,15.70
2023-05-05T20:22:48.453Z,15.60
2023-05-05T20:25:18.242Z,15.60
2023-05-05T20:27:45.775Z,15.60
2023-05-05T20:30:13.627Z,15.60
2023-05-05T20:32:40.766Z,15.50
2023-05-05T20:35:08.180Z,15.50
2023-05-05T20:37:34.871Z,15.50
2023-05-05T20:40:01.529Z,15.40
2023-05-05T20:42:29.518Z,15.50
2023-05-05T20:44:56.446Z,15.40
2023-05-05T20:47:24.278Z,15.40
2023-05-05T20:49:52.283Z,15.30
2023-05-05T20:52:19.428Z,15.40
2023-05-05T20:54:46.231Z,15.40
2023-05-05T20:57:13.017Z,15.30
2023-05-05T20:59:39.829Z,15.30
2023-05-05T21:02:06.554Z,15.30
2023-05-05T21:04:33.490Z,15.30
2023-05-05T21:07:00.183Z,15.30
2023-05-05T21:09:26.995Z,15.30
2023-05-05T21:11:53.720Z,15.30
2023-05-05T21:14:20.440Z,15.30
2023-05-05T21:16:48.645Z,15.30
2023-05-05T21:19:16.280Z,15.20
2023-05-05T21:21:42.943Z,15.20
2023-05-05T21:24:09.725Z,15.10
2023-05-05T21:26:36.398Z,15.10
2023-05-05T21:29:03.182Z,15.10
2023-05-05T21:31:29.935Z,15.10
2023-05-05T21:33:56.843Z,15.10
2023-05-05T21:36:23.661Z,15.00
2023-05-05T21:38:50.957Z,15.00
2023-05-05T21:41:17.704Z,15.10
2023-05-05T21:43:44.407Z,15.00
2023-05-05T21:46:11.306Z,15.00
2023-05-05T21:48:39.016Z,15.00
2023-05-05T21:51:06.690Z,15.00
2023-05-05T21:53:33.372Z,15.00
2023-05-05T21:56:00.050Z,15.00
2023-05-05T21:58:29.110Z,15.00
2023-05-05T22:00:56.083Z,15.00
2023-05-05T22:03:23.158Z,14.90
2023-05-05T22:05:49.967Z,14.90
2023-05-05T22:08:17.237Z,14.90
2023-05-05T22:10:44.233Z,14.90
2023-05-05T22:13:11.044Z,14.90
2023-05-05T22:15:45.821Z,14.90
2023-05-05T22:18:13.176Z,15.00
2023-05-05T22:20:40.700Z,14.80
2023-05-05T22:23:07.419Z,14.80
2023-05-05T22:25:34.089Z,14.90
2023-05-05T22:28:00.783Z,14.80
2023-05-05T22:30:27.425Z,14.80
2023-05-05T22:32:55.025Z,14.80
2023-05-05T22:35:22.196Z,14.80
2023-05-05T22:37:49.004Z,14.70
2023-05-05T22:40:15.723Z,14.70
2023-05-05T22:42:42.419Z,14.70
2023-05-05T22:45:09.772Z,14.80
2023-05-05T22:47:37.095Z,14.70
2023-05-05T22:50:04.084Z,14.70
2023-05-05T22:52:30.801Z,14.70
2023-05-05T22:54:57.504Z,14.70
2023-05-05T22:57:24.605Z,14.70
2023-05-05T22:59:51.623Z,14.70
2023-05-05T23:02:18.263Z,14.70
2023-05-05T23:04:45.191Z,14.70
2023-05-05T23:07:12.937Z,14.70
2023-05-05T23:09:40.668Z,14.70
2023-05-05T23:12:07.387Z,14.60
2023-05-05T23:14:35.097Z,14.60
2023-05-05T23:17:02.017Z,14.60
2023-05-05T23:19:29.144Z,14.60
2023-05-05T23:21:56.047Z,14.60
2023-05-05T23:24:23.027Z,14.50
2023-05-05T23:26:50.126Z,14.50
2023-05-05T23:29:16.761Z,14.50
2023-05-05T23:31:43.560Z,14.50
2023-05-05T23:34:10.309Z,14.50
2023-05-05T23:36:36.917Z,14.30
2023-05-05T23:39:03.641Z,14.50
2023-05-05T23:41:30.465Z,14.40
2023-05-05T23:43:57.622Z,14.40
2023-05-05T23:46:24.509Z,14.40
2023-05-05T23:48:51.378Z,14.40
2023-05-05T23:51:18.299Z,14.40
2023-05-05T23:53:44.987Z,14.30
2023-05-05T23:56:12.099Z,14.30
2023-05-05T23:58:38.837Z,14.30
